sensor_id;sensor_type;location;lat;lon;timestamp;pressure;altitude;pressure_sealevel;temperature;humidity
37694;BME280;23531;50.122;8.644;2023-02-20T00:00:10;101627.41;;;10.24;nan
37694;BME280;23531;50.122;8.644;2023-02-20T00:02:17;101621.72;;;10.19;nan
37694;BME280;23531;50.122;8.644;2023-02-20T00:04:18;101621.47;;;9.98;nan
37694;BME280;23531;50.122;8.644;2023-02-20T00:06:20;101616.44;;;9.95;nan
37694;BME280;23531;50.122;8.644;2023-02-20T00:08:21;101616.59;;;10.01;nan
37694;BME280;23531;50.122;8.644;2023-02-20T00:10:22;101611.00;;;10.11;nan
37694;BME280;23531;50.122;8.644;2023-02-20T00:12:24;101616.78;;;10.00;nan
37694;BME280;23531;50.122;8.644;2023-02-20T00:14:26;101618.28;;;10.02;nan
37694;BME280;23531;50.122;8.644;2023-02-20T00:16:29;101614.09;;;10.00;nan
37694;BME280;23531;50.122;8.644;2023-02-20T00:18:31;101612.75;;;9.96;nan
37694;BME280;23531;50.122;8.644;2023-02-20T00:20:33;101605.25;;;9.91;nan
37694;BME280;23531;50.122;8.644;2023-02-20T00:22:35;101608.31;;;9.80;nan
37694;BME280;23531;50.122;8.644;2023-02-20T00:24:36;101610.53;;;9.76;nan
37694;BME280;23531;50.122;8.644;2023-02-20T00:26:37;101608.31;;;9.80;nan
37694;BME280;23531;50.122;8.644;2023-02-20T00:28:39;101616.59;;;9.70;nan
37694;BME280;23531;50.122;8.644;2023-02-20T00:30:41;101609.72;;;9.68;nan
37694;BME280;23531;50.122;8.644;2023-02-20T00:32:42;101607.50;;;9.71;nan
37694;BME280;23531;50.122;8.644;2023-02-20T00:34:45;101610.19;;;9.71;nan
37694;BME280;23531;50.122;8.644;2023-02-20T00:36:46;101614.59;;;9.64;nan
37694;BME280;23531;50.122;8.644;2023-02-20T00:38:47;101608.41;;;9.64;nan
37694;BME280;23531;50.122;8.644;2023-02-20T00:40:49;101604.59;;;9.50;nan
37694;BME280;23531;50.122;8.644;2023-02-20T00:42:50;101599.09;;;9.43;nan
37694;BME280;23531;50.122;8.644;2023-02-20T00:44:51;101601.78;;;9.43;nan
37694;BME280;23531;50.122;8.644;2023-02-20T00:46:53;101601.06;;;9.50;nan
37694;BME280;23531;50.122;8.644;2023-02-20T00:48:54;101604.91;;;9.55;nan
37694;BME280;23531;50.122;8.644;2023-02-20T00:50:56;101606.72;;;9.63;nan
37694;BME280;23531;50.122;8.644;2023-02-20T00:52:58;101606.25;;;9.51;nan
37694;BME280;23531;50.122;8.644;2023-02-20T00:55:00;101600.09;;;9.42;nan
37694;BME280;23531;50.122;8.644;2023-02-20T00:57:01;101604.06;;;9.55;nan
37694;BME280;23531;50.122;8.644;2023-02-20T00:59:02;101600.03;;;9.59;nan
37694;BME280;23531;50.122;8.644;2023-02-20T01:01:04;101601.69;;;9.60;nan
37694;BME280;23531;50.122;8.644;2023-02-20T01:03:05;101607.66;;;9.47;nan
37694;BME280;23531;50.122;8.644;2023-02-20T01:05:06;101593.94;;;9.34;nan
37694;BME280;23531;50.122;8.644;2023-02-20T01:07:09;101600.13;;;9.34;nan
37694;BME280;23531;50.122;8.644;2023-02-20T01:09:10;101590.94;;;9.21;nan
37694;BME280;23531;50.122;8.644;2023-02-20T01:11:11;101590.94;;;9.21;nan
37694;BME280;23531;50.122;8.644;2023-02-20T01:13:13;101596.25;;;9.37;nan
37694;BME280;23531;50.122;8.644;2023-02-20T01:15:15;101598.75;;;9.38;nan
37694;BME280;23531;50.122;8.644;2023-02-20T01:17:16;101601.91;;;9.50;nan
37694;BME280;23531;50.122;8.644;2023-02-20T01:19:17;101601.06;;;9.50;nan
37694;BME280;23531;50.122;8.644;2023-02-20T01:21:19;101594.38;;;9.45;nan
37694;BME280;23531;50.122;8.644;2023-02-20T01:23:21;101595.56;;;9.43;nan
37694;BME280;23531;50.122;8.644;2023-02-20T01:25:23;101601.63;;;9.37;nan
37694;BME280;23531;50.122;8.644;2023-02-20T01:27:24;101595.44;;;9.36;nan
37694;BME280;23531;50.122;8.644;2023-02-20T01:29:25;101593.63;;;9.21;nan
37694;BME280;23531;50.122;8.644;2023-02-20T01:31:26;101601.19;;;9.25;nan
37694;BME280;23531;50.122;8.644;2023-02-20T01:33:28;101595.78;;;9.33;nan
37694;BME280;23531;50.122;8.644;2023-02-20T01:35:29;101595.63;;;9.27;nan
37694;BME280;23531;50.122;8.644;2023-02-20T01:37:31;101580.88;;;9.15;nan
37694;BME280;23531;50.122;8.644;2023-02-20T01:39:33;101583.09;;;9.03;nan
37694;BME280;23531;50.122;8.644;2023-02-20T01:41:35;101580.13;;;8.98;nan
37694;BME280;23531;50.122;8.644;2023-02-20T01:43:36;101582.94;;;9.13;nan
37694;BME280;23531;50.122;8.644;2023-02-20T01:45:38;101583.09;;;9.03;nan
37694;BME280;23531;50.122;8.644;2023-02-20T01:47:39;101579.41;;;9.12;nan
37694;BME280;23531;50.122;8.644;2023-02-20T01:49:42;101577.88;;;9.18;nan
37694;BME280;23531;50.122;8.644;2023-02-20T01:51:45;101583.59;;;9.06;nan
37694;BME280;23531;50.122;8.644;2023-02-20T01:53:47;101575.59;;;8.98;nan
37694;BME280;23531;50.122;8.644;2023-02-20T01:55:50;101569.41;;;8.82;nan
37694;BME280;23531;50.122;8.644;2023-02-20T01:57:53;101569.44;;;8.73;nan
37694;BME280;23531;50.122;8.644;2023-02-20T01:59:56;101565.88;;;8.81;nan
37694;BME280;23531;50.122;8.644;2023-02-20T02:02:00;101562.31;;;9.05;nan
37694;BME280;23531;50.122;8.644;2023-02-20T02:04:02;101557.03;;;9.28;nan
37694;BME280;23531;50.122;8.644;2023-02-20T02:06:06;101554.38;;;9.20;nan
37694;BME280;23531;50.122;8.644;2023-02-20T02:08:07;101548.06;;;9.13;nan
37694;BME280;23531;50.122;8.644;2023-02-20T02:10:10;101553.72;;;9.18;nan
37694;BME280;23531;50.122;8.644;2023-02-20T02:12:14;101544.72;;;9.02;nan
37694;BME280;23531;50.122;8.644;2023-02-20T02:14:15;101538.03;;;8.98;nan
37694;BME280;23531;50.122;8.644;2023-02-20T02:16:19;101533.53;;;8.91;nan
37694;BME280;23531;50.122;8.644;2023-02-20T02:18:28;101534.34;;;8.99;nan
37694;BME280;23531;50.122;8.644;2023-02-20T02:20:48;101537.00;;;9.07;nan
37694;BME280;23531;50.122;8.644;2023-02-20T02:23:00;101526.03;;;9.17;nan
37694;BME280;23531;50.122;8.644;2023-02-20T02:25:15;101531.06;;;9.20;nan
37694;BME280;23531;50.122;8.644;2023-02-20T02:27:28;101537.19;;;8.98;nan
37694;BME280;23531;50.122;8.644;2023-02-20T02:29:44;101533.03;;;8.87;nan
37694;BME280;23531;50.122;8.644;2023-02-20T02:31:58;101543.97;;;8.78;nan
37694;BME280;23531;50.122;8.644;2023-02-20T02:34:19;101539.44;;;8.70;nan
37694;BME280;23531;50.122;8.644;2023-02-20T02:36:30;101536.59;;;8.63;nan
37694;BME280;23531;50.122;8.644;2023-02-20T02:38:37;101545.63;;;8.79;nan
37694;BME280;23531;50.122;8.644;2023-02-20T02:40:46;101547.19;;;8.57;nan
37694;BME280;23531;50.122;8.644;2023-02-20T02:42:54;101540.78;;;8.66;nan
37694;BME280;23531;50.122;8.644;2023-02-20T02:45:00;101536.97;;;8.52;nan
37694;BME280;23531;50.122;8.644;2023-02-20T02:47:04;101523.91;;;8.57;nan
37694;BME280;23531;50.122;8.644;2023-02-20T02:49:09;101528.75;;;8.54;nan
37694;BME280;23531;50.122;8.644;2023-02-20T02:51:12;101534.44;;;8.51;nan
37694;BME280;23531;50.122;8.644;2023-02-20T02:53:17;101530.06;;;8.66;nan
37694;BME280;23531;50.122;8.644;2023-02-20T02:55:20;101531.06;;;8.65;nan
37694;BME280;23531;50.122;8.644;2023-02-20T02:57:22;101530.91;;;8.58;nan
37694;BME280;23531;50.122;8.644;2023-02-20T02:59:25;101530.44;;;8.55;nan
37694;BME280;23531;50.122;8.644;2023-02-20T03:01:31;101520.38;;;8.57;nan
37694;BME280;23531;50.122;8.644;2023-02-20T03:03:36;101522.50;;;8.69;nan
37694;BME280;23531;50.122;8.644;2023-02-20T03:05:39;101528.38;;;8.65;nan
37694;BME280;23531;50.122;8.644;2023-02-20T03:07:46;101524.53;;;8.67;nan
37694;BME280;23531;50.122;8.644;2023-02-20T03:09:52;101519.66;;;8.71;nan
37694;BME280;23531;50.122;8.644;2023-02-20T03:11:54;101524.06;;;8.56;nan
37694;BME280;23531;50.122;8.644;2023-02-20T03:14:00;101531.44;;;8.46;nan
37694;BME280;23531;50.122;8.644;2023-02-20T03:16:20;101535.31;;;8.35;nan
37694;BME280;23531;50.122;8.644;2023-02-20T03:18:23;101538.13;;;8.50;nan
37694;BME280;23531;50.122;8.644;2023-02-20T03:20:29;101525.19;;;8.78;nan
37694;BME280;23531;50.122;8.644;2023-02-20T03:22:32;101519.19;;;8.67;nan
37694;BME280;23531;50.122;8.644;2023-02-20T03:24:34;101521.19;;;8.65;nan
37694;BME280;23531;50.122;8.644;2023-02-20T03:26:55;101526.31;;;8.91;nan
37694;BME280;23531;50.122;8.644;2023-02-20T03:29:00;101526.47;;;8.98;nan
37694;BME280;23531;50.122;8.644;2023-02-20T03:31:02;101538.03;;;8.98;nan
37694;BME280;23531;50.122;8.644;2023-02-20T03:33:07;101538.53;;;8.94;nan
37694;BME280;23531;50.122;8.644;2023-02-20T03:35:27;101541.09;;;8.79;nan
37694;BME280;23531;50.122;8.644;2023-02-20T03:37:48;101539.75;;;8.91;nan
37694;BME280;23531;50.122;8.644;2023-02-20T03:40:09;101529.31;;;8.96;nan
37694;BME280;23531;50.122;8.644;2023-02-20T03:42:32;101531.97;;;9.04;nan
37694;BME280;23531;50.122;8.644;2023-02-20T03:44:52;101525.63;;;8.97;nan
37694;BME280;23531;50.122;8.644;2023-02-20T03:46:54;101532.06;;;8.72;nan
37694;BME280;23531;50.122;8.644;2023-02-20T03:48:57;101544.28;;;8.74;nan
37694;BME280;23531;50.122;8.644;2023-02-20T03:51:00;101536.09;;;8.68;nan
37694;BME280;23531;50.122;8.644;2023-02-20T03:53:01;101539.25;;;8.80;nan
37694;BME280;23531;50.122;8.644;2023-02-20T03:55:02;101539.25;;;8.71;nan
37694;BME280;23531;50.122;8.644;2023-02-20T03:57:04;101535.91;;;8.78;nan
37694;BME280;23531;50.122;8.644;2023-02-20T03:59:10;101550.84;;;8.64;nan
37694;BME280;23531;50.122;8.644;2023-02-20T04:01:14;101547.50;;;8.54;nan
37694;BME280;23531;50.122;8.644;2023-02-20T04:03:17;101560.91;;;8.21;nan
37694;BME280;23531;50.122;8.644;2023-02-20T04:05:21;101548.88;;;8.33;nan
37694;BME280;23531;50.122;8.644;2023-02-20T04:07:24;101543.47;;;8.25;nan
37694;BME280;23531;50.122;8.644;2023-02-20T04:09:28;101543.16;;;8.12;nan
37694;BME280;23531;50.122;8.644;2023-02-20T04:11:31;101539.09;;;8.16;nan
37694;BME280;23531;50.122;8.644;2023-02-20T04:13:34;101531.75;;;8.10;nan
37694;BME280;23531;50.122;8.644;2023-02-20T04:15:38;101528.72;;;8.05;nan
37694;BME280;23531;50.122;8.644;2023-02-20T04:17:41;101527.38;;;7.93;nan
37694;BME280;23531;50.122;8.644;2023-02-20T04:19:44;101524.69;;;7.93;nan
37694;BME280;23531;50.122;8.644;2023-02-20T04:21:47;101523.84;;;7.92;nan
37694;BME280;23531;50.122;8.644;2023-02-20T04:23:51;101521.84;;;8.02;nan
37694;BME280;23531;50.122;8.644;2023-02-20T04:25:57;101538.09;;;7.93;nan
37694;BME280;23531;50.122;8.644;2023-02-20T04:28:01;101539.25;;;7.82;nan
37694;BME280;23531;50.122;8.644;2023-02-20T04:30:02;101536.88;;;7.63;nan
37694;BME280;23531;50.122;8.644;2023-02-20T04:32:05;101551.78;;;7.65;nan
37694;BME280;23531;50.122;8.644;2023-02-20T04:34:07;101548.75;;;7.69;nan
37694;BME280;23531;50.122;8.644;2023-02-20T04:36:08;101549.09;;;7.65;nan
37694;BME280;23531;50.122;8.644;2023-02-20T04:38:10;101545.75;;;7.72;nan
37694;BME280;23531;50.122;8.644;2023-02-20T04:40:13;101543.59;;;7.75;nan
37694;BME280;23531;50.122;8.644;2023-02-20T04:42:15;101536.41;;;7.84;nan
37694;BME280;23531;50.122;8.644;2023-02-20T04:44:16;101538.13;;;8.01;nan
37694;BME280;23531;50.122;8.644;2023-02-20T04:46:34;101531.75;;;8.10;nan
37694;BME280;23531;50.122;8.644;2023-02-20T04:48:36;101533.09;;;8.06;nan
37694;BME280;23531;50.122;8.644;2023-02-20T04:50:38;101525.84;;;7.90;nan
37694;BME280;23531;50.122;8.644;2023-02-20T04:52:40;101527.38;;;7.85;nan
37694;BME280;23531;50.122;8.644;2023-02-20T04:54:41;101531.72;;;7.94;nan
37694;BME280;23531;50.122;8.644;2023-02-20T04:56:42;101536.03;;;7.71;nan
37694;BME280;23531;50.122;8.644;2023-02-20T04:58:45;101533.03;;;7.74;nan
37694;BME280;23531;50.122;8.644;2023-02-20T05:00:46;101528.03;;;7.79;nan
37694;BME280;23531;50.122;8.644;2023-02-20T05:02:47;101520.84;;;7.87;nan
37694;BME280;23531;50.122;8.644;2023-02-20T05:04:50;101525.00;;;7.74;nan
37694;BME280;23531;50.122;8.644;2023-02-20T05:06:52;101530.69;;;7.62;nan
37694;BME280;23531;50.122;8.644;2023-02-20T05:08:53;101527.31;;;7.60;nan
37694;BME280;23531;50.122;8.644;2023-02-20T05:10:55;101537.50;;;7.57;nan
37694;BME280;23531;50.122;8.644;2023-02-20T05:12:56;101531.97;;;7.42;nan
37694;BME280;23531;50.122;8.644;2023-02-20T05:14:57;101530.28;;;7.41;nan
37694;BME280;23531;50.122;8.644;2023-02-20T05:16:58;101527.44;;;7.43;nan
37694;BME280;23531;50.122;8.644;2023-02-20T05:19:00;101523.59;;;7.45;nan
37694;BME280;23531;50.122;8.644;2023-02-20T05:21:03;101520.44;;;7.50;nan
37694;BME280;23531;50.122;8.644;2023-02-20T05:23:22;101521.78;;;7.54;nan
37694;BME280;23531;50.122;8.644;2023-02-20T05:25:23;101522.94;;;7.51;nan
37694;BME280;23531;50.122;8.644;2023-02-20T05:27:24;101529.63;;;7.47;nan
37694;BME280;23531;50.122;8.644;2023-02-20T05:29:26;101542.00;;;7.48;nan
37694;BME280;23531;50.122;8.644;2023-02-20T05:31:28;101531.97;;;7.42;nan
37694;BME280;23531;50.122;8.644;2023-02-20T05:33:29;101522.56;;;7.38;nan
37694;BME280;23531;50.122;8.644;2023-02-20T05:35:30;101527.28;;;7.44;nan
37694;BME280;23531;50.122;8.644;2023-02-20T05:37:33;101536.66;;;7.48;nan
37694;BME280;23531;50.122;8.644;2023-02-20T05:39:34;101536.84;;;7.55;nan
37694;BME280;23531;50.122;8.644;2023-02-20T05:41:36;101532.84;;;7.59;nan
37694;BME280;23531;50.122;8.644;2023-02-20T05:43:37;101536.84;;;7.55;nan
37694;BME280;23531;50.122;8.644;2023-02-20T05:45:38;101533.13;;;7.48;nan
37694;BME280;23531;50.122;8.644;2023-02-20T05:47:40;101529.97;;;7.52;nan
37694;BME280;23531;50.122;8.644;2023-02-20T05:49:41;101534.63;;;7.42;nan
37694;BME280;23531;50.122;8.644;2023-02-20T05:51:42;101525.56;;;7.35;nan
37694;BME280;23531;50.122;8.644;2023-02-20T05:53:46;101531.59;;;7.29;nan
37694;BME280;23531;50.122;8.644;2023-02-20T05:55:47;101536.78;;;7.31;nan
37694;BME280;23531;50.122;8.644;2023-02-20T05:57:48;101534.94;;;7.31;nan
37694;BME280;23531;50.122;8.644;2023-02-20T05:59:50;101529.59;;;7.31;nan
37694;BME280;23531;50.122;8.644;2023-02-20T06:01:54;101539.31;;;7.40;nan
37694;BME280;23531;50.122;8.644;2023-02-20T06:03:56;101532.97;;;7.41;nan
37694;BME280;23531;50.122;8.644;2023-02-20T06:05:57;101524.09;;;7.41;nan
37694;BME280;23531;50.122;8.644;2023-02-20T06:07:58;101517.06;;;7.40;nan
37694;BME280;23531;50.122;8.644;2023-02-20T06:10:01;101518.19;;;7.29;nan
37694;BME280;23531;50.122;8.644;2023-02-20T06:12:02;101522.25;;;7.41;nan
37694;BME280;23531;50.122;8.644;2023-02-20T06:14:04;101523.78;;;7.44;nan
37694;BME280;23531;50.122;8.644;2023-02-20T06:16:05;101516.09;;;7.57;nan
37694;BME280;23531;50.122;8.644;2023-02-20T06:18:06;101515.63;;;7.61;nan
37694;BME280;23531;50.122;8.644;2023-02-20T06:20:08;101503.75;;;7.56;nan
37694;BME280;23531;50.122;8.644;2023-02-20T06:22:09;101508.25;;;7.63;nan
37694;BME280;23531;50.122;8.644;2023-02-20T06:24:10;101501.28;;;7.79;nan
37694;BME280;23531;50.122;8.644;2023-02-20T06:26:13;101509.59;;;7.59;nan
37694;BME280;23531;50.122;8.644;2023-02-20T06:28:15;101507.09;;;7.66;nan
37694;BME280;23531;50.122;8.644;2023-02-20T06:30:16;101506.88;;;7.43;nan
37694;BME280;23531;50.122;8.644;2023-02-20T06:32:17;101502.00;;;7.39;nan
37694;BME280;23531;50.122;8.644;2023-02-20T06:34:19;101510.25;;;7.53;nan
37694;BME280;23531;50.122;8.644;2023-02-20T06:36:23;101509.56;;;7.43;nan
37694;BME280;23531;50.122;8.644;2023-02-20T06:38:24;101511.03;;;7.46;nan
37694;BME280;23531;50.122;8.644;2023-02-20T06:40:26;101508.19;;;7.31;nan
37694;BME280;23531;50.122;8.644;2023-02-20T06:42:29;101516.88;;;7.33;nan
37694;BME280;23531;50.122;8.644;2023-02-20T06:44:30;101511.41;;;7.59;nan
37694;BME280;23531;50.122;8.644;2023-02-20T06:46:32;101518.31;;;7.70;nan
37694;BME280;23531;50.122;8.644;2023-02-20T06:48:33;101521.13;;;7.52;nan
37694;BME280;23531;50.122;8.644;2023-02-20T06:50:34;101520.41;;;7.42;nan
37694;BME280;23531;50.122;8.644;2023-02-20T06:52:36;101519.44;;;7.43;nan
37694;BME280;23531;50.122;8.644;2023-02-20T06:54:37;101528.69;;;7.22;nan
37694;BME280;23531;50.122;8.644;2023-02-20T06:56:39;101523.88;;;7.26;nan
37694;BME280;23531;50.122;8.644;2023-02-20T06:58:41;101526.09;;;7.39;nan
37694;BME280;23531;50.122;8.644;2023-02-20T07:00:43;101529.19;;;7.18;nan
37694;BME280;23531;50.122;8.644;2023-02-20T07:02:44;101530.47;;;7.06;nan
37694;BME280;23531;50.122;8.644;2023-02-20T07:04:46;101530.47;;;7.06;nan
37694;BME280;23531;50.122;8.644;2023-02-20T07:06:48;101528.78;;;7.05;nan
37694;BME280;23531;50.122;8.644;2023-02-20T07:08:50;101523.53;;;7.21;nan
37694;BME280;23531;50.122;8.644;2023-02-20T07:10:51;101527.94;;;6.96;nan
37694;BME280;23531;50.122;8.644;2023-02-20T07:12:54;101530.72;;;6.86;nan
37694;BME280;23531;50.122;8.644;2023-02-20T07:14:57;101533.28;;;6.96;nan
37694;BME280;23531;50.122;8.644;2023-02-20T07:16:58;101533.44;;;6.95;nan
37694;BME280;23531;50.122;8.644;2023-02-20T07:19:00;101524.66;;;7.10;nan
37694;BME280;23531;50.122;8.644;2023-02-20T07:21:01;101526.53;;;7.26;nan
37694;BME280;23531;50.122;8.644;2023-02-20T07:23:02;101525.50;;;7.11;nan
37694;BME280;23531;50.122;8.644;2023-02-20T07:25:04;101533.81;;;7.00;nan
37694;BME280;23531;50.122;8.644;2023-02-20T07:27:06;101524.72;;;7.26;nan
37694;BME280;23531;50.122;8.644;2023-02-20T07:29:10;101524.44;;;7.46;nan
37694;BME280;23531;50.122;8.644;2023-02-20T07:31:13;101519.03;;;7.29;nan
37694;BME280;23531;50.122;8.644;2023-02-20T07:33:14;101516.97;;;7.15;nan
37694;BME280;23531;50.122;8.644;2023-02-20T07:35:16;101516.53;;;7.28;nan
37694;BME280;23531;50.122;8.644;2023-02-20T07:37:17;101518.75;;;7.41;nan
37694;BME280;23531;50.122;8.644;2023-02-20T07:39:18;101512.63;;;7.14;nan
37694;BME280;23531;50.122;8.644;2023-02-20T07:41:20;101514.63;;;7.12;nan
37694;BME280;23531;50.122;8.644;2023-02-20T07:43:22;101513.66;;;7.21;nan
37694;BME280;23531;50.122;8.644;2023-02-20T07:45:23;101509.19;;;7.30;nan
37694;BME280;23531;50.122;8.644;2023-02-20T07:47:26;101514.53;;;7.30;nan
37694;BME280;23531;50.122;8.644;2023-02-20T07:49:27;101510.56;;;7.50;nan
37694;BME280;23531;50.122;8.644;2023-02-20T07:51:29;101504.06;;;7.61;nan
37694;BME280;23531;50.122;8.644;2023-02-20T07:53:30;101503.22;;;7.44;nan
37694;BME280;23531;50.122;8.644;2023-02-20T07:55:32;101492.84;;;7.49;nan
37694;BME280;23531;50.122;8.644;2023-02-20T07:57:34;101494.88;;;7.63;nan
37694;BME280;23531;50.122;8.644;2023-02-20T07:59:36;101498.91;;;7.84;nan
37694;BME280;23531;50.122;8.644;2023-02-20T08:01:37;101499.59;;;7.78;nan
37694;BME280;23531;50.122;8.644;2023-02-20T08:03:40;101497.25;;;7.67;nan
37694;BME280;23531;50.122;8.644;2023-02-20T08:05:41;101494.56;;;7.75;nan
37694;BME280;23531;50.122;8.644;2023-02-20T08:07:44;101493.72;;;7.82;nan
37694;BME280;23531;50.122;8.644;2023-02-20T08:09:46;101490.22;;;7.82;nan
37694;BME280;23531;50.122;8.644;2023-02-20T08:11:47;101486.22;;;7.78;nan
37694;BME280;23531;50.122;8.644;2023-02-20T08:13:49;101487.69;;;7.56;nan
37694;BME280;23531;50.122;8.644;2023-02-20T08:15:50;101490.16;;;7.57;nan
37694;BME280;23531;50.122;8.644;2023-02-20T08:17:51;101498.59;;;7.87;nan
37694;BME280;23531;50.122;8.644;2023-02-20T08:19:54;101479.19;;;8.01;nan
37694;BME280;23531;50.122;8.644;2023-02-20T08:21:55;101484.22;;;8.12;nan
37694;BME280;23531;50.122;8.644;2023-02-20T08:23:56;101483.50;;;8.26;nan
37694;BME280;23531;50.122;8.644;2023-02-20T08:25:58;101472.78;;;8.26;nan
37694;BME280;23531;50.122;8.644;2023-02-20T08:28:00;101464.75;;;8.02;nan
37694;BME280;23531;50.122;8.644;2023-02-20T08:30:01;101464.44;;;8.05;nan
37694;BME280;23531;50.122;8.644;2023-02-20T08:32:02;101464.59;;;8.03;nan
37694;BME280;23531;50.122;8.644;2023-02-20T08:34:04;101466.13;;;8.22;nan
37694;BME280;23531;50.122;8.644;2023-02-20T08:36:07;101458.22;;;8.37;nan
37694;BME280;23531;50.122;8.644;2023-02-20T08:38:21;101454.34;;;8.48;nan
37694;BME280;23531;50.122;8.644;2023-02-20T08:40:22;101449.69;;;8.25;nan
37694;BME280;23531;50.122;8.644;2023-02-20T08:42:23;101451.72;;;8.23;nan
37694;BME280;23531;50.122;8.644;2023-02-20T08:44:25;101457.91;;;8.40;nan
37694;BME280;23531;50.122;8.644;2023-02-20T08:46:26;101458.03;;;8.47;nan
37694;BME280;23531;50.122;8.644;2023-02-20T08:48:27;101457.22;;;8.30;nan
37694;BME280;23531;50.122;8.644;2023-02-20T08:50:29;101445.34;;;8.16;nan
37694;BME280;23531;50.122;8.644;2023-02-20T08:52:31;101441.66;;;8.17;nan
37694;BME280;23531;50.122;8.644;2023-02-20T08:54:33;101443.16;;;8.20;nan
37694;BME280;23531;50.122;8.644;2023-02-20T08:56:34;101443.16;;;8.28;nan
37694;BME280;23531;50.122;8.644;2023-02-20T08:58:35;101446.34;;;8.40;nan
37694;BME280;23531;50.122;8.644;2023-02-20T09:00:36;101452.88;;;8.45;nan
37694;BME280;23531;50.122;8.644;2023-02-20T09:02:38;101444.28;;;8.58;nan
37694;BME280;23531;50.122;8.644;2023-02-20T09:04:39;101438.25;;;8.64;nan
37694;BME280;23531;50.122;8.644;2023-02-20T09:06:40;101442.25;;;8.68;nan
37694;BME280;23531;50.122;8.644;2023-02-20T09:08:43;101438.53;;;8.77;nan
37694;BME280;23531;50.122;8.644;2023-02-20T09:10:44;101436.34;;;8.72;nan
37694;BME280;23531;50.122;8.644;2023-02-20T09:12:45;101432.13;;;8.86;nan
37694;BME280;23531;50.122;8.644;2023-02-20T09:14:47;101441.31;;;8.92;nan
37694;BME280;23531;50.122;8.644;2023-02-20T09:16:50;101446.53;;;8.85;nan
37694;BME280;23531;50.122;8.644;2023-02-20T09:18:51;101446.81;;;8.98;nan
37694;BME280;23531;50.122;8.644;2023-02-20T09:20:54;101448.53;;;8.91;nan
37694;BME280;23531;50.122;8.644;2023-02-20T09:22:56;101444.31;;;8.97;nan
37694;BME280;23531;50.122;8.644;2023-02-20T09:24:59;101451.97;;;9.08;nan
37694;BME280;23531;50.122;8.644;2023-02-20T09:27:00;101443.41;;;9.13;nan
37694;BME280;23531;50.122;8.644;2023-02-20T09:29:01;101432.78;;;9.19;nan
37694;BME280;23531;50.122;8.644;2023-02-20T09:31:03;101433.28;;;9.23;nan
37694;BME280;23531;50.122;8.644;2023-02-20T09:33:04;101436.09;;;9.29;nan
37694;BME280;23531;50.122;8.644;2023-02-20T09:35:05;101428.19;;;9.36;nan
37694;BME280;23531;50.122;8.644;2023-02-20T09:37:06;101429.13;;;9.43;nan
37694;BME280;23531;50.122;8.644;2023-02-20T09:39:08;101437.19;;;9.43;nan
37694;BME280;23531;50.122;8.644;2023-02-20T09:41:13;101433.13;;;9.47;nan
37694;BME280;23531;50.122;8.644;2023-02-20T09:43:22;101439.34;;;9.48;nan
37694;BME280;23531;50.122;8.644;2023-02-20T09:45:25;101445.25;;;9.43;nan
37694;BME280;23531;50.122;8.644;2023-02-20T09:47:43;101449.03;;;9.48;nan
37694;BME280;23531;50.122;8.644;2023-02-20T09:49:49;101443.16;;;9.53;nan
37694;BME280;23531;50.122;8.644;2023-02-20T09:51:52;101448.88;;;9.50;nan
37694;BME280;23531;50.122;8.644;2023-02-20T09:53:56;101438.84;;;9.44;nan
37694;BME280;23531;50.122;8.644;2023-02-20T09:55:59;101436.59;;;9.56;nan
37694;BME280;23531;50.122;8.644;2023-02-20T09:58:03;101435.75;;;9.55;nan
37694;BME280;23531;50.122;8.644;2023-02-20T10:00:05;101437.72;;;9.61;nan
37694;BME280;23531;50.122;8.644;2023-02-20T10:02:11;101426.69;;;9.56;nan
37694;BME280;23531;50.122;8.644;2023-02-20T10:04:15;101434.41;;;9.59;nan
37694;BME280;23531;50.122;8.644;2023-02-20T10:06:18;101427.56;;;9.71;nan
37694;BME280;23531;50.122;8.644;2023-02-20T10:08:20;101432.72;;;9.81;nan
37694;BME280;23531;50.122;8.644;2023-02-20T10:10:24;101429.47;;;9.86;nan
37694;BME280;23531;50.122;8.644;2023-02-20T10:12:26;101433.13;;;9.93;nan
37694;BME280;23531;50.122;8.644;2023-02-20T10:14:33;101431.63;;;9.90;nan
37694;BME280;23531;50.122;8.644;2023-02-20T10:16:38;101422.25;;;9.86;nan
37694;BME280;23531;50.122;8.644;2023-02-20T10:18:46;101434.50;;;9.89;nan
37694;BME280;23531;50.122;8.644;2023-02-20T10:20:54;101421.28;;;10.02;nan
37694;BME280;23531;50.122;8.644;2023-02-20T10:22:58;101421.56;;;10.07;nan
37694;BME280;23531;50.122;8.644;2023-02-20T10:25:05;101422.38;;;10.07;nan
37694;BME280;23531;50.122;8.644;2023-02-20T10:27:13;101414.31;;;10.07;nan
37694;BME280;23531;50.122;8.644;2023-02-20T10:29:17;101423.22;;;10.08;nan
37694;BME280;23531;50.122;8.644;2023-02-20T10:31:24;101409.78;;;10.08;nan
37694;BME280;23531;50.122;8.644;2023-02-20T10:33:29;101407.41;;;10.13;nan
37694;BME280;23531;50.122;8.644;2023-02-20T10:35:35;101406.00;;;10.17;nan
37694;BME280;23531;50.122;8.644;2023-02-20T10:37:39;101405.50;;;10.22;nan
37694;BME280;23531;50.122;8.644;2023-02-20T10:39:44;101396.91;;;10.26;nan
37694;BME280;23531;50.122;8.644;2023-02-20T10:41:49;101394.81;;;10.28;nan
37694;BME280;23531;50.122;8.644;2023-02-20T10:43:54;101392.25;;;10.35;nan
37694;BME280;23531;50.122;8.644;2023-02-20T10:46:00;101398.09;;;10.38;nan
37694;BME280;23531;50.122;8.644;2023-02-20T10:48:05;101397.06;;;10.39;nan
37694;BME280;23531;50.122;8.644;2023-02-20T10:50:08;101380.56;;;10.42;nan
37694;BME280;23531;50.122;8.644;2023-02-20T10:52:13;101379.56;;;10.43;nan
37694;BME280;23531;50.122;8.644;2023-02-20T10:54:16;101383.91;;;10.44;nan
37694;BME280;23531;50.122;8.644;2023-02-20T10:56:22;101373.16;;;10.44;nan
37694;BME280;23531;50.122;8.644;2023-02-20T10:58:27;101378.06;;;10.55;nan
37694;BME280;23531;50.122;8.644;2023-02-20T11:00:32;101383.16;;;10.65;nan
37694;BME280;23531;50.122;8.644;2023-02-20T11:02:39;101364.22;;;10.73;nan
37694;BME280;23531;50.122;8.644;2023-02-20T11:04:45;101365.97;;;10.81;nan
37694;BME280;23531;50.122;8.644;2023-02-20T11:06:49;101356.50;;;10.85;nan
37694;BME280;23531;50.122;8.644;2023-02-20T11:08:53;101351.19;;;10.91;nan